createdAt,value
2019-01-17T00:00:01.556Z,1.60
2019-01-17T00:02:40.603Z,1.80
2019-01-17T00:05:11.306Z,2.20
2019-01-17T00:07:47.659Z,2.33
2019-01-17T00:10:17.813Z,2.70
2019-01-17T00:12:54.457Z,2.20
2019-01-17T00:15:24.517Z,2.20
2019-01-17T00:17:54.625Z,2.20
2019-01-17T00:20:24.846Z,2.00
2019-01-17T00:23:03.768Z,1.80
2019-01-17T00:25:37.055Z,2.00
2019-01-17T00:28:08.155Z,1.73
2019-01-17T00:30:50.417Z,2.13
2019-01-17T00:33:30.638Z,1.63
2019-01-17T00:36:03.719Z,1.50
2019-01-17T00:38:52.087Z,2.30
2019-01-17T00:41:25.285Z,2.30
2019-01-17T00:43:55.355Z,2.33
2019-01-17T00:46:41.633Z,1.90
2019-01-17T00:49:14.466Z,2.47
2019-01-17T00:52:00.676Z,1.90
2019-01-17T00:54:36.479Z,2.27
2019-01-17T00:57:06.654Z,1.70
2019-01-17T00:59:45.650Z,1.90
2019-01-17T01:02:31.758Z,2.17
2019-01-17T01:05:18.254Z,1.77
2019-01-17T01:07:57.457Z,1.90
2019-01-17T01:10:30.240Z,1.90
2019-01-17T01:13:00.299Z,2.00
2019-01-17T01:15:36.215Z,2.47
2019-01-17T01:18:22.709Z,2.20
2019-01-17T01:21:01.820Z,1.90
2019-01-17T01:23:50.080Z,2.10
2019-01-17T01:26:36.110Z,2.37
2019-01-17T01:29:06.315Z,1.77
2019-01-17T01:31:36.399Z,1.70
2019-01-17T01:34:09.299Z,2.80
2019-01-17T01:36:55.554Z,1.77
2019-01-17T01:39:25.626Z,1.93
2019-01-17T01:41:55.724Z,2.10
2019-01-17T01:44:37.717Z,3.00
2019-01-17T01:47:16.658Z,2.30
2019-01-17T01:50:04.700Z,1.83
2019-01-17T01:52:46.743Z,2.13
2019-01-17T01:55:15.176Z,1.90
2019-01-17T01:57:43.602Z,2.20
2019-01-17T02:00:12.430Z,1.90
2019-01-17T02:02:40.869Z,2.07
2019-01-17T02:05:09.454Z,1.40
2019-01-17T02:07:37.877Z,2.23
2019-01-17T02:10:09.370Z,1.90
2019-01-17T02:12:37.840Z,2.00
2019-01-17T02:15:08.384Z,2.00
2019-01-17T02:17:36.808Z,1.90
2019-01-17T02:20:08.884Z,1.90
2019-01-17T02:22:37.293Z,1.83
2019-01-17T02:25:07.874Z,1.70
2019-01-17T02:27:36.346Z,2.50
2019-01-17T02:30:07.824Z,1.60
2019-01-17T02:32:36.248Z,1.97
2019-01-17T02:35:07.113Z,1.47
2019-01-17T02:37:35.604Z,1.80
2019-01-17T02:40:07.056Z,1.87
2019-01-17T02:42:35.678Z,1.83
2019-01-17T02:45:05.530Z,2.17
2019-01-17T02:47:33.991Z,1.73
2019-01-17T02:50:07.518Z,2.17
2019-01-17T02:52:35.960Z,2.00
2019-01-17T02:55:06.628Z,2.23
2019-01-17T02:57:35.129Z,2.20
2019-01-17T03:00:08.784Z,1.90
2019-01-17T03:02:37.286Z,1.63
2019-01-17T03:05:06.260Z,1.70
2019-01-17T03:07:34.770Z,1.80
2019-01-17T03:10:04.049Z,1.70
2019-01-17T03:12:32.464Z,1.60
2019-01-17T03:15:00.914Z,1.67
2019-01-17T03:17:29.373Z,2.10
2019-01-17T03:19:57.863Z,2.40
2019-01-17T03:22:26.299Z,1.60
2019-01-17T03:24:54.762Z,1.90
2019-01-17T03:27:23.176Z,1.70
2019-01-17T03:29:51.631Z,2.00
2019-01-17T03:32:20.162Z,1.70
2019-01-17T03:34:48.576Z,2.00
2019-01-17T03:37:17.022Z,1.87
2019-01-17T03:39:45.439Z,1.50
2019-01-17T03:42:13.874Z,2.00
2019-01-17T03:44:42.289Z,1.70
2019-01-17T03:47:11.715Z,1.90
2019-01-17T03:49:41.000Z,1.70
2019-01-17T03:52:09.502Z,1.87
2019-01-17T03:54:38.725Z,1.63
2019-01-17T03:57:07.222Z,2.33
2019-01-17T03:59:35.638Z,1.63
2019-01-17T04:02:05.058Z,1.90
2019-01-17T04:04:33.547Z,2.07
2019-01-17T04:07:02.037Z,1.97
2019-01-17T04:09:30.462Z,1.80
2019-01-17T04:11:58.881Z,2.10
2019-01-17T04:14:27.357Z,2.23
2019-01-17T04:16:55.787Z,1.97
2019-01-17T04:19:24.212Z,1.73
2019-01-17T04:21:52.650Z,1.70
2019-01-17T04:24:21.096Z,1.90
2019-01-17T04:26:49.565Z,2.00
2019-01-17T04:29:18.088Z,1.50
2019-01-17T04:31:46.519Z,1.50
2019-01-17T04:34:16.003Z,2.10
2019-01-17T04:36:44.436Z,2.00
2019-01-17T04:39:12.913Z,1.50
2019-01-17T04:41:41.343Z,1.70
2019-01-17T04:44:09.804Z,1.70
2019-01-17T04:46:38.224Z,1.60
2019-01-17T04:49:06.662Z,1.70
2019-01-17T04:51:35.980Z,1.73
2019-01-17T04:54:05.048Z,2.33
2019-01-17T04:56:33.482Z,2.00
2019-01-17T04:59:01.909Z,1.80
2019-01-17T05:01:30.312Z,1.90
2019-01-17T05:03:58.766Z,1.80
2019-01-17T05:06:27.337Z,1.70
2019-01-17T05:08:55.826Z,1.80
2019-01-17T05:11:24.266Z,2.03
2019-01-17T05:13:52.687Z,2.37
2019-01-17T05:16:21.252Z,2.20
2019-01-17T05:18:50.604Z,2.50
2019-01-17T05:21:19.486Z,1.60
2019-01-17T05:23:47.904Z,2.00
2019-01-17T05:26:16.400Z,1.97
2019-01-17T05:28:44.854Z,1.87
2019-01-17T05:31:13.282Z,2.30
2019-01-17T05:33:41.697Z,2.57
2019-01-17T05:36:10.116Z,1.80
2019-01-17T05:38:38.553Z,1.70
2019-01-17T05:41:07.068Z,2.07
2019-01-17T05:43:35.533Z,1.77
2019-01-17T05:46:04.014Z,2.00
2019-01-17T05:48:32.471Z,2.17
2019-01-17T05:51:00.895Z,2.33
2019-01-17T05:53:29.310Z,2.20
2019-01-17T05:55:57.750Z,2.40
2019-01-17T05:58:26.181Z,2.17
2019-01-17T06:00:54.671Z,2.37
2019-01-17T06:03:23.106Z,1.97
2019-01-17T06:05:51.584Z,2.07
2019-01-17T06:08:19.998Z,2.10
2019-01-17T06:10:48.460Z,2.20
2019-01-17T06:13:17.314Z,2.83
2019-01-17T06:15:45.914Z,1.90
2019-01-17T06:18:14.352Z,3.00
2019-01-17T06:20:42.806Z,1.90
2019-01-17T06:23:11.219Z,2.00
2019-01-17T06:25:39.647Z,1.97
2019-01-17T06:28:08.095Z,2.13
2019-01-17T06:30:36.616Z,1.93
2019-01-17T06:33:05.096Z,1.73
2019-01-17T06:35:33.496Z,2.07
2019-01-17T06:38:01.940Z,2.00
2019-01-17T06:40:30.704Z,2.07
2019-01-17T06:42:59.181Z,1.90
2019-01-17T06:45:27.664Z,1.60
2019-01-17T06:47:56.114Z,1.50
2019-01-17T06:50:24.518Z,1.90
2019-01-17T06:52:53.018Z,1.60
2019-01-17T06:55:21.460Z,1.47
2019-01-17T06:57:49.870Z,1.90
2019-01-17T07:00:18.315Z,1.90
2019-01-17T07:02:46.993Z,1.90
2019-01-17T07:05:16.181Z,2.07
2019-01-17T07:07:44.681Z,2.20
2019-01-17T07:10:15.572Z,1.80
2019-01-17T07:12:44.050Z,1.90
2019-01-17T07:15:13.079Z,2.03
2019-01-17T07:17:41.531Z,1.60
2019-01-17T07:20:12.439Z,1.93
2019-01-17T07:22:40.852Z,1.60
2019-01-17T07:25:10.305Z,2.03
2019-01-17T07:27:38.744Z,2.17
2019-01-17T07:30:13.254Z,1.93
2019-01-17T07:32:42.589Z,2.10
2019-01-17T07:35:11.059Z,1.60
2019-01-17T07:37:39.542Z,2.20
2019-01-17T07:40:09.627Z,1.53
2019-01-17T07:42:38.027Z,2.20
2019-01-17T07:45:09.585Z,2.67
2019-01-17T07:47:37.997Z,1.97
2019-01-17T07:50:09.141Z,2.10
2019-01-17T07:52:38.039Z,1.70
2019-01-17T07:55:08.786Z,2.17
2019-01-17T07:57:37.282Z,2.20
2019-01-17T08:00:11.517Z,1.60
2019-01-17T08:02:40.013Z,2.30
2019-01-17T08:05:08.714Z,2.50
2019-01-17T08:07:37.140Z,1.70
2019-01-17T08:10:08.622Z,2.57
2019-01-17T08:12:37.120Z,2.10
2019-01-17T08:15:07.948Z,2.17
2019-01-17T08:17:36.446Z,2.40
2019-01-17T08:20:07.954Z,2.00
2019-01-17T08:22:36.393Z,2.30
2019-01-17T08:25:08.154Z,2.33
2019-01-17T08:27:36.579Z,2.20
2019-01-17T08:30:10.736Z,2.27
2019-01-17T08:32:39.151Z,2.00
2019-01-17T08:35:08.113Z,2.37
2019-01-17T08:37:36.508Z,2.10
2019-01-17T08:40:20.090Z,2.13
2019-01-17T08:42:44.179Z,1.60
2019-01-17T08:45:12.739Z,3.00
2019-01-17T08:47:41.241Z,2.73
2019-01-17T08:50:12.787Z,3.23
2019-01-17T08:52:41.274Z,1.83
2019-01-17T08:55:09.778Z,2.30
2019-01-17T08:57:38.185Z,2.10
2019-01-17T09:00:12.253Z,1.77
2019-01-17T09:02:40.665Z,1.70
2019-01-17T09:05:10.139Z,1.90
2019-01-17T09:07:38.568Z,2.40
2019-01-17T09:10:13.662Z,1.50
2019-01-17T09:12:42.077Z,1.90
2019-01-17T09:15:13.262Z,1.70
2019-01-17T09:17:41.682Z,1.93
2019-01-17T09:20:12.840Z,2.03
2019-01-17T09:22:41.331Z,1.73
2019-01-17T09:25:12.176Z,2.00
2019-01-17T09:27:40.618Z,1.80
2019-01-17T09:30:12.459Z,1.40
2019-01-17T09:32:40.954Z,1.67
2019-01-17T09:35:11.440Z,1.60
2019-01-17T09:37:39.845Z,1.80
2019-01-17T09:40:14.147Z,1.60
2019-01-17T09:42:42.633Z,1.47
2019-01-17T09:45:11.319Z,1.60
2019-01-17T09:47:39.869Z,1.50
2019-01-17T09:50:14.402Z,1.60
2019-01-17T09:52:42.824Z,1.70
2019-01-17T09:55:11.416Z,1.83
2019-01-17T09:57:39.820Z,2.00
2019-01-17T10:00:17.166Z,1.77
2019-01-17T10:02:45.582Z,2.20
2019-01-17T10:05:14.177Z,1.60
2019-01-17T10:07:42.620Z,2.00
2019-01-17T10:10:16.328Z,1.87
2019-01-17T10:12:45.210Z,1.73
2019-01-17T10:15:17.258Z,1.80
2019-01-17T10:18:00.640Z,1.50
2019-01-17T10:20:38.016Z,1.73
2019-01-17T10:23:21.461Z,1.60
2019-01-17T10:25:53.001Z,1.70
2019-01-17T10:28:24.490Z,1.63
2019-01-17T10:31:01.609Z,2.23
2019-01-17T10:33:33.099Z,1.97
2019-01-17T10:36:07.155Z,1.73
2019-01-17T10:38:44.625Z,1.77
2019-01-17T10:41:27.936Z,1.40
2019-01-17T10:43:59.437Z,1.70
2019-01-17T10:47:02.708Z,1.60
2019-01-17T10:49:37.005Z,1.20
2019-01-17T10:52:14.141Z,1.70
2019-01-17T10:55:17.730Z,1.30
2019-01-17T10:57:55.087Z,1.40
2019-01-17T11:00:41.489Z,1.23
2019-01-17T11:03:34.282Z,1.63
2019-01-17T11:06:08.356Z,1.50
2019-01-17T11:08:56.455Z,1.60
2019-01-17T11:11:46.069Z,1.37
2019-01-17T11:14:17.551Z,1.43
2019-01-17T11:17:07.213Z,1.50
2019-01-17T11:19:50.666Z,1.53
2019-01-17T11:22:30.965Z,1.47
2019-01-17T11:25:14.180Z,1.37
2019-01-17T11:28:02.132Z,1.60
2019-01-17T11:30:59.503Z,2.00
2019-01-17T11:33:43.029Z,1.30
2019-01-17T11:36:29.560Z,1.40
2019-01-17T11:39:01.050Z,1.33
2019-01-17T11:41:38.582Z,1.50
2019-01-17T11:44:25.201Z,1.60
2019-01-17T11:47:30.054Z,1.40
2019-01-17T11:50:23.150Z,1.40
2019-01-17T11:53:27.560Z,1.70
2019-01-17T11:55:59.047Z,1.23
2019-01-17T11:58:42.309Z,0.90
2019-01-17T12:01:33.230Z,1.10
2019-01-17T12:04:13.924Z,1.43
2019-01-17T12:06:42.345Z,1.40
2019-01-17T12:09:10.819Z,1.40
2019-01-17T12:11:39.279Z,1.20
2019-01-17T12:14:07.715Z,1.50
2019-01-17T12:16:36.144Z,1.60
2019-01-17T12:19:04.626Z,1.30
2019-01-17T12:21:33.115Z,1.20
2019-01-17T12:24:01.512Z,1.40
2019-01-17T12:26:29.938Z,1.67
2019-01-17T12:28:58.358Z,1.50
2019-01-17T12:31:26.837Z,1.37
2019-01-17T12:33:55.285Z,1.20
2019-01-17T12:36:23.744Z,1.10
2019-01-17T12:38:52.171Z,1.30
2019-01-17T12:41:20.595Z,1.20
2019-01-17T12:43:49.016Z,0.90
2019-01-17T12:46:17.450Z,1.30
2019-01-17T12:48:45.862Z,1.37
2019-01-17T12:51:14.321Z,1.40
2019-01-17T12:53:42.720Z,1.40
2019-01-17T12:56:11.256Z,1.00
2019-01-17T12:58:39.822Z,1.37
2019-01-17T13:01:08.238Z,1.40
2019-01-17T13:03:36.748Z,1.10
2019-01-17T13:06:05.443Z,1.03
2019-01-17T13:08:33.876Z,2.20
2019-01-17T13:11:02.380Z,1.47
2019-01-17T13:13:30.808Z,2.20
2019-01-17T13:15:59.298Z,1.60
2019-01-17T13:18:27.747Z,1.80
2019-01-17T13:20:56.168Z,1.50
2019-01-17T13:23:24.592Z,1.53
2019-01-17T13:25:53.085Z,1.50
2019-01-17T13:28:21.543Z,1.50
2019-01-17T13:30:50.127Z,1.40
2019-01-17T13:33:18.532Z,1.50
2019-01-17T13:35:46.940Z,1.57
2019-01-17T13:38:15.381Z,1.57
2019-01-17T13:40:43.790Z,1.57
2019-01-17T13:43:12.220Z,1.40
2019-01-17T13:45:40.654Z,1.30
2019-01-17T13:48:09.148Z,1.30
2019-01-17T13:50:37.572Z,1.30
2019-01-17T13:53:06.009Z,1.40
2019-01-17T13:55:34.496Z,1.80
2019-01-17T13:58:02.927Z,1.37
2019-01-17T14:00:31.336Z,1.20
2019-01-17T14:02:59.784Z,1.20
2019-01-17T14:05:28.193Z,1.40
2019-01-17T14:07:56.676Z,1.37
2019-01-17T14:10:25.200Z,1.53
2019-01-17T14:12:53.619Z,1.00
2019-01-17T14:15:28.035Z,1.50
2019-01-17T14:17:56.444Z,1.00
2019-01-17T14:20:24.880Z,0.93
2019-01-17T14:22:53.373Z,0.93
2019-01-17T14:25:21.859Z,1.43
2019-01-17T14:27:50.280Z,1.10
2019-01-17T14:30:25.313Z,1.00
2019-01-17T14:32:53.731Z,1.27
2019-01-17T14:35:22.282Z,1.13
2019-01-17T14:37:50.738Z,1.17
2019-01-17T14:40:19.220Z,1.30
2019-01-17T14:42:47.648Z,1.10
2019-01-17T14:45:18.799Z,1.20
2019-01-17T14:47:47.984Z,1.20
2019-01-17T14:50:22.193Z,1.00
2019-01-17T14:52:50.626Z,1.60
2019-01-17T14:55:19.088Z,1.20
2019-01-17T14:57:47.581Z,1.60
2019-01-17T15:00:20.904Z,1.10
2019-01-17T15:02:48.877Z,1.50
2019-01-17T15:05:17.443Z,1.33
2019-01-17T15:07:45.850Z,1.30
2019-01-17T15:10:29.276Z,1.40
2019-01-17T15:12:57.704Z,1.50
2019-01-17T15:15:26.194Z,1.23
2019-01-17T15:17:54.658Z,1.43
2019-01-17T15:20:23.053Z,1.33
2019-01-17T15:22:52.848Z,1.40
2019-01-17T15:25:21.272Z,1.10
2019-01-17T15:27:49.785Z,1.43
2019-01-17T15:30:25.357Z,1.90
2019-01-17T15:32:54.024Z,1.30
2019-01-17T15:35:22.499Z,1.17
2019-01-17T15:37:50.924Z,1.17
2019-01-17T15:40:29.835Z,1.20
2019-01-17T15:42:58.294Z,1.30
2019-01-17T15:45:26.789Z,1.40
2019-01-17T15:47:55.235Z,1.30
2019-01-17T15:50:23.654Z,1.20
2019-01-17T15:52:52.121Z,1.33
2019-01-17T15:55:20.590Z,1.40
2019-01-17T15:57:49.064Z,1.20
2019-01-17T16:00:20.561Z,1.00
2019-01-17T16:02:48.992Z,1.00
2019-01-17T16:05:17.522Z,1.07
2019-01-17T16:07:47.003Z,1.97
2019-01-17T16:10:18.501Z,1.10
2019-01-17T16:12:47.206Z,2.00
2019-01-17T16:15:18.729Z,1.30
2019-01-17T16:17:47.216Z,1.10
2019-01-17T16:20:17.051Z,1.13
2019-01-17T16:22:46.918Z,1.03
2019-01-17T16:25:15.834Z,0.90
2019-01-17T16:27:44.362Z,1.00
2019-01-17T16:30:21.721Z,1.03
2019-01-17T16:32:50.131Z,0.93
2019-01-17T16:35:18.543Z,1.80
2019-01-17T16:37:47.018Z,1.00
2019-01-17T16:40:15.687Z,1.17
2019-01-17T16:42:44.123Z,1.13
2019-01-17T16:45:15.263Z,1.20
2019-01-17T16:47:43.664Z,1.10
2019-01-17T16:50:15.271Z,1.20
2019-01-17T16:52:43.714Z,0.87
2019-01-17T16:55:12.969Z,1.07
2019-01-17T16:57:48.529Z,1.30
2019-01-17T17:00:27.414Z,1.13
2019-01-17T17:02:55.871Z,1.10
2019-01-17T17:05:24.350Z,1.20
2019-01-17T17:07:52.763Z,1.27
2019-01-17T17:10:21.251Z,1.23
2019-01-17T17:12:49.677Z,1.30
2019-01-17T17:15:18.076Z,1.23
2019-01-17T17:17:46.496Z,1.20
2019-01-17T17:20:20.529Z,1.13
2019-01-17T17:22:49.007Z,1.30
2019-01-17T17:25:17.501Z,1.23
2019-01-17T17:27:46.041Z,1.50
2019-01-17T17:30:17.288Z,1.20
2019-01-17T17:32:45.791Z,1.10
2019-01-17T17:35:14.524Z,1.10
2019-01-17T17:37:43.910Z,1.20
2019-01-17T17:40:29.369Z,0.90
2019-01-17T17:42:57.793Z,1.10
2019-01-17T17:45:26.196Z,1.13
2019-01-17T17:47:54.771Z,0.80
2019-01-17T17:50:24.050Z,1.30
2019-01-17T17:52:52.558Z,1.20
2019-01-17T17:55:29.847Z,1.00
2019-01-17T17:58:02.144Z,1.20
2019-01-17T18:00:30.115Z,0.93
2019-01-17T18:02:58.730Z,1.00
2019-01-17T18:05:27.281Z,1.10
2019-01-17T18:07:55.775Z,1.10
2019-01-17T18:10:24.214Z,1.20
2019-01-17T18:12:52.705Z,0.90
2019-01-17T18:15:21.262Z,1.23
2019-01-17T18:17:49.709Z,0.93
2019-01-17T18:20:18.552Z,1.10
2019-01-17T18:22:46.975Z,1.37
2019-01-17T18:25:15.533Z,1.20
2019-01-17T18:27:43.960Z,0.80
2019-01-17T18:30:21.178Z,1.10
2019-01-17T18:32:49.829Z,1.10
2019-01-17T18:35:18.334Z,1.33
2019-01-17T18:37:46.796Z,1.00
2019-01-17T18:40:20.311Z,1.10
2019-01-17T18:42:48.874Z,1.30
2019-01-17T18:45:19.741Z,1.00
2019-01-17T18:47:48.169Z,1.20
2019-01-17T18:50:22.194Z,1.03
2019-01-17T18:52:50.702Z,1.00
2019-01-17T18:55:19.119Z,0.90
2019-01-17T18:57:47.617Z,1.03
2019-01-17T19:00:22.758Z,1.20
2019-01-17T19:02:51.601Z,1.20
2019-01-17T19:05:20.658Z,0.80
2019-01-17T19:07:49.327Z,1.00
2019-01-17T19:10:19.180Z,0.90
2019-01-17T19:12:47.770Z,1.03
2019-01-17T19:15:18.895Z,0.90
2019-01-17T19:17:47.317Z,1.00
2019-01-17T19:20:17.674Z,1.40
2019-01-17T19:22:46.151Z,1.00
2019-01-17T19:25:14.741Z,0.90
2019-01-17T19:27:43.202Z,1.00
2019-01-17T19:30:14.703Z,1.00
2019-01-17T19:32:43.122Z,0.80
2019-01-17T19:35:11.676Z,1.00
2019-01-17T19:37:40.104Z,0.87
2019-01-17T19:40:13.975Z,1.30
2019-01-17T19:42:42.538Z,1.00
2019-01-17T19:45:12.985Z,1.07
2019-01-17T19:47:41.481Z,1.70
2019-01-17T19:50:15.804Z,1.70
2019-01-17T19:52:44.317Z,1.40
2019-01-17T19:55:12.803Z,1.60
2019-01-17T19:57:41.206Z,1.07
2019-01-17T20:00:15.724Z,1.30
2019-01-17T20:02:44.256Z,1.20
2019-01-17T20:05:15.717Z,0.97
2019-01-17T20:07:44.204Z,0.93
2019-01-17T20:10:15.645Z,1.00
2019-01-17T20:12:44.626Z,0.90
2019-01-17T20:15:13.224Z,1.00
2019-01-17T20:17:41.797Z,0.90
2019-01-17T20:20:13.441Z,1.00
2019-01-17T20:22:41.950Z,1.10
2019-01-17T20:25:10.601Z,1.00
2019-01-17T20:27:39.023Z,1.10
2019-01-17T20:30:10.535Z,1.27
2019-01-17T20:32:38.945Z,1.20
2019-01-17T20:35:07.734Z,0.97
2019-01-17T20:37:36.204Z,0.90
2019-01-17T20:40:07.694Z,1.20
2019-01-17T20:42:36.235Z,1.03
2019-01-17T20:45:07.899Z,1.40
2019-01-17T20:47:36.323Z,1.00
2019-01-17T20:50:08.144Z,1.00
2019-01-17T20:52:36.579Z,1.07
2019-01-17T20:55:09.037Z,1.00
2019-01-17T20:57:37.621Z,2.03
2019-01-17T21:00:16.570Z,1.27
2019-01-17T21:02:45.035Z,0.93
2019-01-17T21:05:14.387Z,0.90
2019-01-17T21:07:42.806Z,2.03
2019-01-17T21:10:14.274Z,1.30
2019-01-17T21:12:42.821Z,1.40
2019-01-17T21:15:12.897Z,0.97
2019-01-17T21:17:41.309Z,1.00
2019-01-17T21:20:11.787Z,1.40
2019-01-17T21:22:40.271Z,1.00
2019-01-17T21:25:11.833Z,0.93
2019-01-17T21:27:40.244Z,0.97
2019-01-17T21:30:17.429Z,1.10
2019-01-17T21:32:45.835Z,1.00
2019-01-17T21:35:14.302Z,1.30
2019-01-17T21:37:42.730Z,1.00
2019-01-17T21:40:14.085Z,1.30
2019-01-17T21:42:42.531Z,1.60
2019-01-17T21:45:13.697Z,1.70
2019-01-17T21:47:42.208Z,1.43
2019-01-17T21:50:13.870Z,1.40
2019-01-17T21:52:42.383Z,1.33
2019-01-17T21:55:10.918Z,1.60
2019-01-17T21:57:39.324Z,1.40
2019-01-17T22:00:17.108Z,1.60
2019-01-17T22:02:45.513Z,1.50
2019-01-17T22:05:14.011Z,1.20
2019-01-17T22:07:42.518Z,1.50
2019-01-17T22:10:13.573Z,1.10
2019-01-17T22:12:42.534Z,1.67
2019-01-17T22:15:16.882Z,1.40
2019-01-17T22:17:45.289Z,1.60
2019-01-17T22:20:13.861Z,1.70
2019-01-17T22:22:42.638Z,1.60
2019-01-17T22:25:16.532Z,1.43
2019-01-17T22:27:45.013Z,1.80
2019-01-17T22:30:18.895Z,1.77
2019-01-17T22:32:47.385Z,1.90
2019-01-17T22:35:15.867Z,1.40
2019-01-17T22:37:44.293Z,1.33
2019-01-17T22:40:14.959Z,1.50
2019-01-17T22:42:43.517Z,1.50
2019-01-17T22:45:17.399Z,1.40
2019-01-17T22:47:45.825Z,1.43
2019-01-17T22:50:16.695Z,1.50
2019-01-17T22:52:45.169Z,1.90
2019-01-17T22:55:13.603Z,1.83
2019-01-17T22:57:42.079Z,1.47
2019-01-17T23:00:13.596Z,0.90
2019-01-17T23:02:42.006Z,0.90
2019-01-17T23:05:10.511Z,1.10
2019-01-17T23:07:38.937Z,1.10
2019-01-17T23:10:08.691Z,1.20
2019-01-17T23:12:37.117Z,1.60
2019-01-17T23:15:07.868Z,1.30
2019-01-17T23:17:36.298Z,1.53
2019-01-17T23:20:08.023Z,1.60
2019-01-17T23:22:36.467Z,1.40
2019-01-17T23:25:07.051Z,1.23
2019-01-17T23:27:35.440Z,1.60
2019-01-17T23:30:09.655Z,1.80
2019-01-17T23:32:38.073Z,1.73
2019-01-17T23:35:08.612Z,1.30
2019-01-17T23:37:37.034Z,1.40
2019-01-17T23:40:08.392Z,1.60
2019-01-17T23:42:36.823Z,1.80
2019-01-17T23:45:07.532Z,1.80
2019-01-17T23:47:35.953Z,1.57
2019-01-17T23:50:07.587Z,1.47
2019-01-17T23:52:36.035Z,1.40
2019-01-17T23:55:05.974Z,1.50
2019-01-17T23:57:34.659Z,1.43
